createdAt,value
2023-01-30T00:00:25.439Z,14.70
2023-01-30T00:02:51.723Z,18.00
2023-01-30T00:05:18.152Z,20.48
2023-01-30T00:07:44.513Z,22.85
2023-01-30T00:10:11.274Z,18.85
2023-01-30T00:12:37.601Z,16.42
2023-01-30T00:15:04.357Z,15.07
2023-01-30T00:17:30.627Z,17.08
2023-01-30T00:19:56.959Z,21.15
2023-01-30T00:22:23.460Z,16.42
2023-01-30T00:24:49.863Z,14.45
2023-01-30T00:27:16.611Z,17.75
2023-01-30T00:29:45.667Z,19.60
2023-01-30T00:32:15.596Z,17.77
2023-01-30T00:34:41.875Z,19.15
2023-01-30T00:37:08.784Z,22.02
2023-01-30T00:39:35.134Z,16.65
2023-01-30T00:42:01.435Z,19.77
2023-01-30T00:44:27.804Z,17.85
2023-01-30T00:46:54.130Z,15.23
2023-01-30T00:49:20.448Z,15.48
2023-01-30T00:51:47.219Z,16.27
2023-01-30T00:54:13.533Z,19.38
2023-01-30T00:56:39.797Z,17.77
2023-01-30T00:59:06.124Z,19.08
2023-01-30T01:01:32.460Z,16.00
2023-01-30T01:03:58.856Z,22.00
2023-01-30T01:06:25.138Z,17.98
2023-01-30T01:08:51.508Z,19.73
2023-01-30T01:11:17.783Z,18.02
2023-01-30T01:13:44.058Z,18.17
2023-01-30T01:16:10.463Z,18.83
2023-01-30T01:18:36.813Z,17.27
2023-01-30T01:21:03.404Z,17.42
2023-01-30T01:23:29.696Z,17.90
2023-01-30T01:25:55.983Z,18.38
2023-01-30T01:28:22.299Z,17.35
2023-01-30T01:30:48.754Z,20.88
2023-01-30T01:33:15.161Z,20.15
2023-01-30T01:35:41.532Z,19.42
2023-01-30T01:38:07.844Z,18.88
2023-01-30T01:40:34.180Z,18.00
2023-01-30T01:43:00.472Z,24.80
2023-01-30T01:45:26.789Z,23.98
2023-01-30T01:48:05.633Z,20.20
2023-01-30T01:50:53.332Z,18.58
2023-01-30T01:53:24.611Z,11.90
2023-01-30T01:55:56.068Z,20.23
2023-01-30T01:58:28.016Z,19.40
2023-01-30T02:00:57.840Z,20.17
2023-01-30T02:03:26.339Z,19.20
2023-01-30T02:05:57.059Z,19.50
2023-01-30T02:08:29.140Z,20.13
2023-01-30T02:11:17.520Z,20.35
2023-01-30T02:13:45.269Z,19.13
2023-01-30T02:16:11.638Z,17.98
2023-01-30T02:18:41.411Z,19.55
2023-01-30T02:21:10.470Z,16.75
2023-01-30T02:23:59.541Z,15.27
2023-01-30T02:26:47.530Z,17.75
2023-01-30T02:29:46.962Z,15.98
2023-01-30T02:32:41.128Z,16.27
2023-01-30T02:35:26.080Z,19.70
2023-01-30T02:38:04.334Z,11.73
2023-01-30T02:41:08.412Z,16.85
2023-01-30T02:44:15.335Z,19.27
2023-01-30T02:46:46.382Z,17.45
2023-01-30T02:49:41.410Z,18.67
2023-01-30T02:52:11.356Z,13.65
2023-01-30T02:54:37.636Z,14.73
2023-01-30T02:57:04.149Z,17.48
2023-01-30T02:59:35.134Z,16.08
2023-01-30T03:02:21.763Z,15.05
2023-01-30T03:05:08.543Z,14.93
2023-01-30T03:07:53.550Z,14.85
2023-01-30T03:10:38.006Z,16.98
2023-01-30T03:13:20.633Z,15.07
2023-01-30T03:15:54.451Z,13.00
2023-01-30T03:18:21.409Z,14.10
2023-01-30T03:20:48.429Z,16.42
2023-01-30T03:23:14.809Z,13.05
2023-01-30T03:25:43.242Z,13.05
2023-01-30T03:28:10.890Z,13.50
2023-01-30T03:30:37.302Z,14.70
2023-01-30T03:33:03.703Z,16.35
2023-01-30T03:35:30.259Z,15.55
2023-01-30T03:37:58.115Z,15.93
2023-01-30T03:40:24.615Z,14.02
2023-01-30T03:42:50.910Z,15.60
2023-01-30T03:45:17.527Z,14.88
2023-01-30T03:47:43.951Z,14.85
2023-01-30T03:50:10.744Z,14.50
2023-01-30T03:52:37.248Z,12.40
2023-01-30T03:55:04.210Z,12.32
2023-01-30T03:57:30.575Z,13.40
2023-01-30T03:59:57.019Z,15.15
2023-01-30T04:02:23.393Z,14.82
2023-01-30T04:04:49.838Z,15.93
2023-01-30T04:07:16.245Z,15.63
2023-01-30T04:09:42.631Z,12.77
2023-01-30T04:12:09.053Z,11.68
2023-01-30T04:14:35.331Z,15.27
2023-01-30T04:17:01.846Z,13.07
2023-01-30T04:19:28.123Z,12.88
2023-01-30T04:21:54.394Z,15.80
2023-01-30T04:24:20.706Z,15.60
2023-01-30T04:26:47.062Z,12.48
2023-01-30T04:29:13.367Z,14.60
2023-01-30T04:31:39.755Z,12.93
2023-01-30T04:34:06.595Z,14.07
2023-01-30T04:36:32.877Z,12.13
2023-01-30T04:38:59.274Z,13.50
2023-01-30T04:41:25.592Z,13.70
2023-01-30T04:43:51.866Z,14.65
2023-01-30T04:46:18.161Z,14.88
2023-01-30T04:48:44.432Z,10.77
2023-01-30T04:51:10.972Z,12.13
2023-01-30T04:53:37.312Z,12.40
2023-01-30T04:56:03.855Z,12.18
2023-01-30T04:58:30.153Z,12.40
2023-01-30T05:00:56.569Z,12.43
2023-01-30T05:03:22.911Z,13.50
2023-01-30T05:05:49.287Z,10.68
2023-01-30T05:08:15.909Z,13.98
2023-01-30T05:10:42.195Z,12.18
2023-01-30T05:13:08.574Z,11.85
2023-01-30T05:15:34.945Z,11.23
2023-01-30T05:18:01.217Z,11.40
2023-01-30T05:20:27.673Z,12.82
2023-01-30T05:22:53.974Z,12.43
2023-01-30T05:25:20.594Z,14.55
2023-01-30T05:27:47.054Z,15.95
2023-01-30T05:30:13.460Z,15.13
2023-01-30T05:32:39.742Z,13.18
2023-01-30T05:35:06.709Z,14.05
2023-01-30T05:37:33.103Z,13.32
2023-01-30T05:39:59.486Z,13.30
2023-01-30T05:42:25.784Z,11.40
2023-01-30T05:44:52.449Z,11.75
2023-01-30T05:47:18.738Z,15.40
2023-01-30T05:49:45.097Z,13.55
2023-01-30T05:52:11.447Z,15.40
2023-01-30T05:54:37.732Z,12.90
2023-01-30T05:57:04.162Z,16.02
2023-01-30T05:59:30.448Z,14.35
2023-01-30T06:01:56.753Z,14.15
2023-01-30T06:04:23.098Z,12.48
2023-01-30T06:06:50.108Z,13.75
2023-01-30T06:09:16.549Z,15.27
2023-01-30T06:11:42.929Z,14.60
2023-01-30T06:14:09.282Z,13.93
2023-01-30T06:16:35.577Z,13.40
2023-01-30T06:19:02.005Z,11.85
2023-01-30T06:21:28.268Z,12.85
2023-01-30T06:23:54.576Z,12.68
2023-01-30T06:26:20.940Z,13.35
2023-01-30T06:28:47.229Z,15.93
2023-01-30T06:31:13.571Z,14.10
2023-01-30T06:33:40.002Z,13.38
2023-01-30T06:36:06.755Z,13.95
2023-01-30T06:38:33.044Z,14.20
2023-01-30T06:40:59.343Z,13.25
2023-01-30T06:43:25.717Z,16.52
2023-01-30T06:45:52.014Z,13.45
2023-01-30T06:48:19.515Z,11.38
2023-01-30T06:50:46.867Z,13.68
2023-01-30T06:53:13.563Z,9.60
2023-01-30T06:55:39.857Z,11.30
2023-01-30T06:58:08.882Z,15.32
2023-01-30T07:00:36.361Z,10.90
2023-01-30T07:03:02.807Z,10.05
2023-01-30T07:05:29.111Z,13.38
2023-01-30T07:07:55.721Z,11.75
2023-01-30T07:10:22.201Z,13.30
2023-01-30T07:12:48.526Z,8.57
2023-01-30T07:15:15.057Z,11.15
2023-01-30T07:17:41.968Z,10.40
2023-01-30T07:20:09.875Z,9.38
2023-01-30T07:27:28.654Z,10.75
2023-01-30T07:29:54.929Z,9.90
2023-01-30T07:32:21.230Z,8.55
2023-01-30T07:34:47.592Z,9.68
2023-01-30T07:37:14.452Z,10.40
2023-01-30T07:39:41.025Z,10.48
2023-01-30T07:42:07.593Z,11.38
2023-01-30T07:44:34.031Z,6.40
2023-01-30T07:47:01.182Z,8.75
2023-01-30T07:49:27.662Z,10.32
2023-01-30T07:51:53.965Z,10.05
2023-01-30T07:54:20.404Z,10.57
2023-01-30T07:56:46.709Z,7.78
2023-01-30T07:59:13.209Z,8.90
2023-01-30T08:01:39.507Z,9.73
2023-01-30T08:04:05.832Z,10.70
2023-01-30T08:06:32.239Z,8.57
2023-01-30T08:08:58.567Z,8.35
2023-01-30T08:11:24.845Z,9.05
2023-01-30T08:13:51.151Z,7.20
2023-01-30T08:16:17.570Z,8.00
2023-01-30T08:18:43.887Z,6.90
2023-01-30T08:21:10.189Z,8.13
2023-01-30T08:23:36.509Z,8.50
2023-01-30T08:26:04.900Z,7.22
2023-01-30T08:28:31.325Z,6.30
2023-01-30T08:30:58.063Z,8.70
2023-01-30T08:33:25.372Z,7.07
2023-01-30T08:35:51.750Z,7.05
2023-01-30T08:38:18.455Z,7.45
2023-01-30T08:40:44.794Z,8.80
2023-01-30T08:43:11.125Z,5.95
2023-01-30T08:45:37.477Z,7.93
2023-01-30T08:48:05.875Z,8.38
2023-01-30T08:50:33.356Z,8.20
2023-01-30T08:53:07.502Z,9.05
2023-01-30T08:55:33.867Z,7.63
2023-01-30T08:58:00.192Z,8.23
2023-01-30T09:00:27.623Z,7.35
2023-01-30T09:02:57.835Z,7.43
2023-01-30T09:05:24.988Z,7.40
2023-01-30T09:07:51.568Z,8.63
2023-01-30T09:10:18.509Z,9.00
2023-01-30T09:12:45.037Z,6.15
2023-01-30T09:15:11.395Z,7.25
2023-01-30T09:17:37.754Z,7.55
2023-01-30T09:20:09.342Z,7.60
2023-01-30T09:22:35.695Z,9.82
2023-01-30T09:25:01.991Z,6.97
2023-01-30T09:27:28.356Z,9.23
2023-01-30T09:29:54.678Z,10.43
2023-01-30T09:32:21.153Z,11.52
2023-01-30T09:34:47.663Z,10.23
2023-01-30T09:37:14.691Z,9.98
2023-01-30T09:39:40.963Z,5.85
2023-01-30T09:42:35.944Z,9.70
2023-01-30T09:45:27.875Z,8.00
2023-01-30T09:48:13.528Z,7.72
2023-01-30T09:51:26.869Z,7.05
2023-01-30T09:54:07.269Z,6.65
2023-01-30T09:56:33.574Z,7.80
2023-01-30T09:59:02.896Z,7.78
2023-01-30T10:01:39.251Z,5.68
2023-01-30T10:04:32.208Z,5.53
2023-01-30T10:07:10.504Z,6.53
2023-01-30T10:09:39.756Z,6.07
2023-01-30T10:12:30.782Z,5.15
2023-01-30T10:15:19.315Z,5.47
2023-01-30T10:17:45.562Z,4.50
2023-01-30T10:20:45.181Z,4.45
2023-01-30T10:23:36.514Z,5.35
2023-01-30T10:26:13.273Z,4.97
2023-01-30T10:29:08.345Z,6.68
2023-01-30T10:31:44.820Z,5.30
2023-01-30T10:34:32.606Z,7.03
2023-01-30T10:37:06.453Z,5.28
2023-01-30T10:39:55.303Z,3.78
2023-01-30T10:42:43.682Z,4.50
2023-01-30T10:45:21.198Z,4.65
2023-01-30T10:47:54.676Z,5.28
2023-01-30T10:50:37.439Z,5.57
2023-01-30T10:53:26.905Z,5.63
2023-01-30T10:56:54.992Z,4.97
2023-01-30T10:59:26.343Z,2.95
2023-01-30T11:01:58.822Z,5.97
2023-01-30T11:04:30.969Z,4.10
2023-01-30T11:06:59.968Z,4.85
2023-01-30T11:09:41.766Z,4.60
2023-01-30T11:12:08.218Z,5.43
2023-01-30T11:14:58.399Z,4.72
2023-01-30T11:17:40.427Z,3.53
2023-01-30T11:20:19.680Z,5.05
2023-01-30T11:22:51.928Z,4.95
2023-01-30T11:25:22.451Z,4.93
2023-01-30T11:28:03.141Z,5.90
2023-01-30T11:30:36.681Z,3.97
2023-01-30T11:33:12.370Z,5.15
2023-01-30T11:35:51.112Z,5.00
2023-01-30T11:38:22.279Z,4.68
2023-01-30T11:40:48.747Z,6.07
2023-01-30T11:43:15.271Z,4.75
2023-01-30T11:45:46.961Z,5.25
2023-01-30T11:48:31.526Z,5.10
2023-01-30T11:53:40.084Z,4.93
2023-01-30T11:56:15.895Z,4.22
2023-01-30T11:58:43.590Z,5.85
2023-01-30T12:03:52.595Z,4.60
2023-01-30T12:06:30.999Z,4.40
2023-01-30T12:08:57.701Z,4.40
2023-01-30T12:11:26.049Z,4.70
2023-01-30T12:13:55.671Z,5.32
2023-01-30T12:16:53.633Z,4.10
2023-01-30T12:19:42.868Z,3.97
2023-01-30T12:22:20.826Z,3.88
2023-01-30T12:24:57.636Z,3.70
2023-01-30T12:27:51.883Z,5.13
2023-01-30T12:30:42.760Z,4.80
2023-01-30T12:33:13.250Z,5.35
2023-01-30T12:35:47.990Z,4.10
2023-01-30T12:38:42.154Z,5.90
2023-01-30T12:41:28.934Z,5.05
2023-01-30T12:44:13.440Z,5.15
2023-01-30T12:47:04.015Z,5.13
2023-01-30T12:49:38.599Z,4.20
2023-01-30T12:52:23.921Z,5.80
2023-01-30T12:55:06.053Z,4.38
2023-01-30T12:57:41.409Z,3.90
2023-01-30T13:00:29.717Z,3.63
2023-01-30T13:03:06.820Z,4.15
2023-01-30T13:06:14.966Z,7.05
2023-01-30T13:09:25.669Z,5.78
2023-01-30T13:12:05.855Z,5.57
2023-01-30T13:14:51.926Z,5.20
2023-01-30T13:20:16.957Z,5.03
2023-01-30T13:23:04.096Z,3.47
2023-01-30T13:25:34.097Z,7.10
2023-01-30T13:28:06.724Z,5.57
2023-01-30T13:30:34.461Z,5.75
2023-01-30T13:35:50.949Z,5.43
2023-01-30T13:38:22.330Z,5.22
2023-01-30T13:40:50.665Z,5.38
2023-01-30T13:43:31.286Z,5.75
2023-01-30T13:46:01.923Z,5.10
2023-01-30T13:48:48.954Z,6.25
2023-01-30T13:51:49.254Z,5.68
2023-01-30T13:54:21.808Z,4.25
2023-01-30T13:56:57.594Z,6.38
2023-01-30T14:00:02.729Z,5.47
2023-01-30T14:02:29.156Z,5.28
2023-01-30T14:04:57.125Z,6.10
2023-01-30T14:07:52.575Z,6.20
2023-01-30T14:10:21.013Z,4.65
2023-01-30T14:12:51.147Z,6.18
2023-01-30T14:15:17.716Z,5.55
2023-01-30T14:18:23.260Z,7.43
2023-01-30T14:20:51.300Z,7.15
2023-01-30T14:23:33.182Z,6.13
2023-01-30T14:25:59.974Z,8.43
2023-01-30T14:28:29.065Z,5.80
2023-01-30T14:30:57.888Z,8.35
2023-01-30T14:33:24.135Z,7.18
2023-01-30T14:36:02.756Z,7.60
2023-01-30T14:38:33.783Z,7.05
2023-01-30T14:40:59.995Z,8.68
2023-01-30T14:43:46.346Z,7.55
2023-01-30T14:46:32.626Z,8.50
2023-01-30T14:49:29.464Z,8.65
2023-01-30T14:51:56.180Z,6.88
2023-01-30T14:54:41.331Z,7.00
2023-01-30T14:57:19.062Z,7.38
2023-01-30T14:59:45.267Z,7.95
2023-01-30T15:02:14.691Z,6.97
2023-01-30T15:04:50.487Z,6.07
2023-01-30T15:07:24.415Z,6.43
2023-01-30T15:12:52.546Z,5.38
2023-01-30T15:15:40.442Z,6.28
2023-01-30T15:18:39.985Z,4.82
2023-01-30T15:21:33.678Z,4.07
2023-01-30T15:24:27.704Z,4.75
2023-01-30T15:27:30.635Z,5.10
2023-01-30T15:30:04.237Z,6.13
2023-01-30T15:32:32.935Z,5.80
2023-01-30T15:35:22.726Z,3.05
2023-01-30T15:37:54.272Z,4.55
2023-01-30T15:40:23.086Z,6.47
2023-01-30T15:43:01.395Z,4.78
2023-01-30T15:45:40.531Z,4.55
2023-01-30T15:48:34.952Z,5.55
2023-01-30T15:51:02.882Z,6.40
2023-01-30T15:53:36.018Z,5.90
2023-01-30T15:56:07.365Z,8.18
2023-01-30T15:58:40.944Z,7.25
2023-01-30T16:01:08.316Z,7.55
2023-01-30T16:03:40.730Z,5.65
2023-01-30T16:06:07.418Z,8.45
2023-01-30T16:08:35.729Z,6.95
2023-01-30T16:11:02.604Z,9.65
2023-01-30T16:13:30.405Z,8.10
2023-01-30T16:18:38.495Z,5.82
2023-01-30T16:21:09.462Z,7.18
2023-01-30T16:23:40.883Z,5.60
2023-01-30T16:26:16.054Z,6.32
2023-01-30T16:28:42.451Z,8.45
2023-01-30T16:31:10.423Z,9.98
2023-01-30T16:33:37.988Z,9.30
2023-01-30T16:36:06.557Z,8.07
2023-01-30T16:38:45.162Z,8.35
2023-01-30T16:41:30.198Z,5.72
2023-01-30T16:44:23.992Z,7.88
2023-01-30T16:47:11.976Z,7.85
2023-01-30T16:49:45.705Z,7.10
2023-01-30T16:52:20.896Z,7.05
2023-01-30T16:54:51.084Z,7.18
2023-01-30T16:57:34.102Z,10.40
2023-01-30T17:00:00.923Z,8.75
2023-01-30T17:02:34.525Z,9.70
2023-01-30T17:05:40.230Z,7.85
2023-01-30T17:08:45.060Z,7.88
2023-01-30T17:11:29.992Z,5.60
2023-01-30T17:14:10.797Z,8.07
2023-01-30T17:16:37.250Z,5.93
2023-01-30T17:19:03.516Z,6.05
2023-01-30T17:21:36.018Z,7.32
2023-01-30T17:24:04.692Z,5.93
2023-01-30T17:26:32.002Z,7.32
2023-01-30T17:28:58.945Z,6.30
2023-01-30T17:31:25.443Z,7.88
2023-01-30T17:33:51.880Z,8.02
2023-01-30T17:36:23.849Z,8.68
2023-01-30T17:38:50.541Z,7.72
2023-01-30T17:41:22.451Z,7.80
2023-01-30T17:43:49.920Z,7.85
2023-01-30T17:46:17.678Z,7.05
2023-01-30T17:48:44.691Z,6.93
2023-01-30T17:51:10.977Z,7.22
2023-01-30T17:53:37.344Z,8.98
2023-01-30T17:56:03.963Z,6.60
2023-01-30T17:58:30.286Z,6.32
2023-01-30T18:00:56.549Z,8.02
2023-01-30T18:03:22.939Z,6.13
2023-01-30T18:05:49.222Z,5.68
2023-01-30T18:08:15.577Z,6.97
2023-01-30T18:10:42.115Z,5.68
2023-01-30T18:13:08.416Z,8.02
2023-01-30T18:15:34.724Z,7.93
2023-01-30T18:18:01.148Z,5.72
2023-01-30T18:20:27.454Z,6.60
2023-01-30T18:22:53.835Z,6.03
2023-01-30T18:25:20.673Z,5.93
2023-01-30T18:27:47.346Z,7.43
2023-01-30T18:30:17.438Z,5.72
2023-01-30T18:32:53.030Z,6.40
2023-01-30T18:35:21.124Z,9.30
2023-01-30T18:37:47.487Z,6.57
2023-01-30T18:40:13.901Z,7.53
2023-01-30T18:42:40.186Z,7.20
2023-01-30T18:45:06.943Z,6.53
2023-01-30T18:47:33.220Z,6.43
2023-01-30T18:49:59.492Z,6.50
2023-01-30T18:52:25.804Z,4.65
2023-01-30T18:54:52.199Z,5.07
2023-01-30T18:57:18.498Z,7.03
2023-01-30T18:59:44.855Z,4.00
2023-01-30T19:02:11.979Z,6.75
2023-01-30T19:04:38.415Z,7.75
2023-01-30T19:07:05.116Z,5.50
2023-01-30T19:09:31.425Z,7.30
2023-01-30T19:11:57.710Z,5.55
2023-01-30T19:14:24.131Z,5.90
2023-01-30T19:16:50.421Z,6.88
2023-01-30T19:19:17.535Z,6.15
2023-01-30T19:21:43.961Z,5.43
2023-01-30T19:24:13.566Z,7.65
2023-01-30T19:26:40.372Z,6.72
2023-01-30T19:29:06.756Z,6.38
2023-01-30T19:31:33.434Z,4.60
2023-01-30T19:34:01.681Z,5.18
2023-01-30T19:36:30.260Z,5.05
2023-01-30T19:38:59.306Z,4.93
2023-01-30T19:41:30.587Z,7.30
2023-01-30T19:43:59.043Z,7.97
2023-01-30T19:46:26.119Z,6.15
2023-01-30T19:48:52.571Z,6.70
2023-01-30T19:51:30.723Z,7.43
2023-01-30T19:54:00.210Z,7.63
2023-01-30T19:56:27.748Z,8.90
2023-01-30T19:58:55.946Z,8.43
2023-01-30T20:01:25.277Z,9.90
2023-01-30T20:03:51.568Z,6.90
2023-01-30T20:06:20.734Z,9.20
2023-01-30T20:08:48.955Z,10.82
2023-01-30T20:11:17.340Z,8.98
2023-01-30T20:13:45.338Z,7.50
2023-01-30T20:16:15.194Z,11.63
2023-01-30T20:18:42.124Z,6.85
2023-01-30T20:21:14.250Z,8.30
2023-01-30T20:23:40.621Z,7.93
2023-01-30T20:26:09.277Z,9.00
2023-01-30T20:28:36.578Z,7.68
2023-01-30T20:31:12.156Z,9.98
2023-01-30T20:33:39.142Z,11.57
2023-01-30T20:36:08.362Z,9.40
2023-01-30T20:38:37.188Z,10.13
2023-01-30T20:41:05.362Z,8.55
2023-01-30T20:43:35.710Z,8.77
2023-01-30T20:46:11.154Z,11.00
2023-01-30T20:48:38.546Z,10.32
2023-01-30T20:51:07.497Z,8.00
2023-01-30T20:53:34.766Z,9.15
2023-01-30T20:56:01.475Z,8.88
2023-01-30T20:58:28.593Z,10.45
2023-01-30T21:00:55.212Z,9.20
2023-01-30T21:03:24.609Z,9.25
2023-01-30T21:05:58.056Z,8.13
2023-01-30T21:08:25.046Z,9.00
2023-01-30T21:10:51.339Z,11.32
2023-01-30T21:13:17.628Z,9.95
2023-01-30T21:15:43.975Z,11.75
2023-01-30T21:18:10.268Z,6.35
2023-01-30T21:20:36.557Z,7.90
2023-01-30T21:23:03.074Z,10.23
2023-01-30T21:25:29.557Z,9.68
2023-01-30T21:27:55.947Z,10.68
2023-01-30T21:30:22.317Z,9.32
2023-01-30T21:32:48.649Z,8.48
2023-01-30T21:35:14.917Z,7.68
2023-01-30T21:37:41.209Z,6.65
2023-01-30T21:40:09.718Z,9.13
2023-01-30T21:42:35.995Z,7.40
2023-01-30T21:45:03.013Z,11.85
2023-01-30T21:47:29.270Z,11.20
2023-01-30T21:49:55.664Z,8.25
2023-01-30T21:52:22.008Z,10.65
2023-01-30T21:54:48.280Z,6.82
2023-01-30T21:57:14.636Z,9.15
2023-01-30T21:59:40.915Z,7.97
2023-01-30T22:02:07.225Z,8.63
2023-01-30T22:04:34.615Z,7.78
2023-01-30T22:07:00.880Z,7.20
2023-01-30T22:09:27.255Z,8.02
2023-01-30T22:11:53.786Z,10.88
2023-01-30T22:14:20.095Z,7.88
2023-01-30T22:16:46.423Z,7.35
2023-01-30T22:19:12.726Z,8.00
2023-01-30T22:21:40.195Z,10.30
2023-01-30T22:24:08.568Z,7.10
2023-01-30T22:26:35.233Z,10.05
2023-01-30T22:29:04.682Z,13.63
2023-01-30T22:31:36.330Z,9.55
2023-01-30T22:34:04.181Z,10.77
2023-01-30T22:38:57.794Z,11.80
2023-01-30T22:41:26.222Z,9.30
2023-01-30T22:43:57.201Z,7.10
2023-01-30T22:46:28.813Z,9.60
2023-01-30T22:48:55.129Z,7.70
2023-01-30T22:51:23.764Z,10.45
2023-01-30T22:53:55.404Z,9.10
2023-01-30T22:56:24.703Z,11.18
2023-01-30T22:58:51.532Z,10.50
2023-01-30T23:01:21.080Z,9.55
2023-01-30T23:03:52.054Z,14.23
2023-01-30T23:06:18.411Z,9.55
2023-01-30T23:08:47.351Z,10.13
2023-01-30T23:11:24.778Z,10.07
2023-01-30T23:13:53.801Z,12.05
2023-01-30T23:16:24.383Z,9.27
2023-01-30T23:18:51.158Z,10.07
2023-01-30T23:21:18.286Z,11.45
2023-01-30T23:23:45.457Z,9.65
2023-01-30T23:26:12.841Z,6.70
2023-01-30T23:28:39.838Z,7.47
2023-01-30T23:31:08.704Z,7.90
2023-01-30T23:33:35.526Z,9.20
2023-01-30T23:36:08.066Z,8.43
2023-01-30T23:38:34.583Z,6.32
2023-01-30T23:41:12.937Z,8.88
2023-01-30T23:43:41.113Z,7.53
2023-01-30T23:46:14.842Z,9.50
2023-01-30T23:48:42.048Z,7.13
2023-01-30T23:51:08.408Z,8.10
2023-01-30T23:53:35.157Z,11.02
2023-01-30T23:56:02.576Z,7.50
2023-01-30T23:58:28.849Z,7.88
